sensor_id;sensor_type;location;lat;lon;timestamp;P1;durP1;ratioP1;P2;durP2;ratioP2
67191;SDS011;54120;53.504;49.426;2022-08-14T00:00:07;19.23;;;10.10;;
67191;SDS011;54120;53.504;49.426;2022-08-14T00:02:36;17.42;;;9.65;;
67191;SDS011;54120;53.504;49.426;2022-08-14T00:05:03;31.63;;;10.20;;
67191;SDS011;54120;53.504;49.426;2022-08-14T00:07:30;21.20;;;9.63;;
67191;SDS011;54120;53.504;49.426;2022-08-14T00:09:57;19.27;;;9.73;;
67191;SDS011;54120;53.504;49.426;2022-08-14T00:12:23;24.50;;;9.48;;
67191;SDS011;54120;53.504;49.426;2022-08-14T00:14:51;15.73;;;8.27;;
67191;SDS011;54120;53.504;49.426;2022-08-14T00:17:17;23.70;;;9.75;;
67191;SDS011;54120;53.504;49.426;2022-08-14T00:19:44;15.38;;;9.05;;
67191;SDS011;54120;53.504;49.426;2022-08-14T00:22:10;18.38;;;9.10;;
67191;SDS011;54120;53.504;49.426;2022-08-14T00:24:39;22.65;;;8.75;;
67191;SDS011;54120;53.504;49.426;2022-08-14T00:27:06;25.50;;;8.93;;
67191;SDS011;54120;53.504;49.426;2022-08-14T00:29:32;13.95;;;8.68;;
67191;SDS011;54120;53.504;49.426;2022-08-14T00:31:58;17.85;;;9.05;;
67191;SDS011;54120;53.504;49.426;2022-08-14T00:34:24;17.65;;;8.70;;
67191;SDS011;54120;53.504;49.426;2022-08-14T00:36:50;18.50;;;8.48;;
67191;SDS011;54120;53.504;49.426;2022-08-14T00:39:16;18.35;;;7.82;;
67191;SDS011;54120;53.504;49.426;2022-08-14T00:41:42;20.17;;;8.45;;
67191;SDS011;54120;53.504;49.426;2022-08-14T00:44:09;22.48;;;8.77;;
67191;SDS011;54120;53.504;49.426;2022-08-14T00:46:36;21.00;;;9.05;;
67191;SDS011;54120;53.504;49.426;2022-08-14T00:49:03;22.27;;;8.82;;
67191;SDS011;54120;53.504;49.426;2022-08-14T00:51:29;21.05;;;9.38;;
67191;SDS011;54120;53.504;49.426;2022-08-14T00:53:57;22.33;;;8.68;;
67191;SDS011;54120;53.504;49.426;2022-08-14T00:56:24;20.10;;;9.10;;
67191;SDS011;54120;53.504;49.426;2022-08-14T00:58:51;18.52;;;8.60;;
67191;SDS011;54120;53.504;49.426;2022-08-14T01:01:19;15.35;;;7.88;;
67191;SDS011;54120;53.504;49.426;2022-08-14T01:03:45;19.92;;;7.90;;
67191;SDS011;54120;53.504;49.426;2022-08-14T01:06:13;17.52;;;8.05;;
67191;SDS011;54120;53.504;49.426;2022-08-14T01:08:41;16.90;;;7.90;;
67191;SDS011;54120;53.504;49.426;2022-08-14T01:11:09;20.40;;;8.20;;
67191;SDS011;54120;53.504;49.426;2022-08-14T01:13:41;16.42;;;7.78;;
67191;SDS011;54120;53.504;49.426;2022-08-14T01:16:10;15.88;;;8.23;;
67191;SDS011;54120;53.504;49.426;2022-08-14T01:18:38;16.77;;;7.32;;
67191;SDS011;54120;53.504;49.426;2022-08-14T01:21:36;15.00;;;8.07;;
67191;SDS011;54120;53.504;49.426;2022-08-14T01:24:05;19.50;;;7.28;;
67191;SDS011;54120;53.504;49.426;2022-08-14T01:26:33;24.88;;;9.18;;
67191;SDS011;54120;53.504;49.426;2022-08-14T01:29:00;17.10;;;8.20;;
67191;SDS011;54120;53.504;49.426;2022-08-14T01:31:30;19.98;;;7.88;;
67191;SDS011;54120;53.504;49.426;2022-08-14T01:33:58;17.13;;;6.97;;
67191;SDS011;54120;53.504;49.426;2022-08-14T01:36:27;17.90;;;9.10;;
67191;SDS011;54120;53.504;49.426;2022-08-14T01:39:02;20.67;;;7.45;;
67191;SDS011;54120;53.504;49.426;2022-08-14T01:41:34;11.55;;;6.63;;
67191;SDS011;54120;53.504;49.426;2022-08-14T01:44:01;13.63;;;7.32;;
67191;SDS011;54120;53.504;49.426;2022-08-14T01:46:33;15.52;;;7.47;;
67191;SDS011;54120;53.504;49.426;2022-08-14T01:49:03;16.00;;;7.78;;
67191;SDS011;54120;53.504;49.426;2022-08-14T01:51:31;20.27;;;8.63;;
67191;SDS011;54120;53.504;49.426;2022-08-14T01:54:00;17.98;;;7.57;;
67191;SDS011;54120;53.504;49.426;2022-08-14T01:56:32;14.80;;;6.90;;
67191;SDS011;54120;53.504;49.426;2022-08-14T01:59:05;11.95;;;7.00;;
67191;SDS011;54120;53.504;49.426;2022-08-14T02:01:55;15.15;;;6.97;;
67191;SDS011;54120;53.504;49.426;2022-08-14T02:04:23;13.23;;;6.85;;
67191;SDS011;54120;53.504;49.426;2022-08-14T02:06:52;15.68;;;7.00;;
67191;SDS011;54120;53.504;49.426;2022-08-14T02:09:18;16.58;;;6.88;;
67191;SDS011;54120;53.504;49.426;2022-08-14T02:11:46;13.25;;;7.07;;
67191;SDS011;54120;53.504;49.426;2022-08-14T02:14:15;19.67;;;7.78;;
67191;SDS011;54120;53.504;49.426;2022-08-14T02:16:44;20.75;;;6.80;;
67191;SDS011;54120;53.504;49.426;2022-08-14T02:19:16;11.57;;;6.55;;
67191;SDS011;54120;53.504;49.426;2022-08-14T02:21:47;12.38;;;6.38;;
67191;SDS011;54120;53.504;49.426;2022-08-14T02:24:15;13.00;;;6.60;;
67191;SDS011;54120;53.504;49.426;2022-08-14T02:26:43;16.52;;;5.88;;
67191;SDS011;54120;53.504;49.426;2022-08-14T02:29:14;13.57;;;6.32;;
67191;SDS011;54120;53.504;49.426;2022-08-14T02:31:44;13.25;;;5.78;;
67191;SDS011;54120;53.504;49.426;2022-08-14T02:34:15;11.40;;;5.90;;
67191;SDS011;54120;53.504;49.426;2022-08-14T02:36:46;15.60;;;6.10;;
67191;SDS011;54120;53.504;49.426;2022-08-14T02:39:14;15.30;;;5.93;;
67191;SDS011;54120;53.504;49.426;2022-08-14T02:41:40;10.35;;;5.70;;
67191;SDS011;54120;53.504;49.426;2022-08-14T02:44:10;12.85;;;5.40;;
67191;SDS011;54120;53.504;49.426;2022-08-14T02:46:37;13.20;;;5.82;;
67191;SDS011;54120;53.504;49.426;2022-08-14T02:49:04;11.20;;;5.22;;
67191;SDS011;54120;53.504;49.426;2022-08-14T02:51:31;13.32;;;5.60;;
67191;SDS011;54120;53.504;49.426;2022-08-14T02:54:08;11.20;;;4.90;;
67191;SDS011;54120;53.504;49.426;2022-08-14T02:56:35;12.32;;;5.22;;
67191;SDS011;54120;53.504;49.426;2022-08-14T02:59:05;15.13;;;5.13;;
67191;SDS011;54120;53.504;49.426;2022-08-14T03:01:34;11.57;;;5.03;;
67191;SDS011;54120;53.504;49.426;2022-08-14T03:04:02;11.82;;;4.93;;
67191;SDS011;54120;53.504;49.426;2022-08-14T03:06:30;11.57;;;5.05;;
67191;SDS011;54120;53.504;49.426;2022-08-14T03:08:57;9.80;;;5.05;;
67191;SDS011;54120;53.504;49.426;2022-08-14T03:11:24;10.00;;;4.45;;
67191;SDS011;54120;53.504;49.426;2022-08-14T03:13:51;13.13;;;4.75;;
67191;SDS011;54120;53.504;49.426;2022-08-14T03:16:22;10.98;;;5.10;;
67191;SDS011;54120;53.504;49.426;2022-08-14T03:18:50;12.40;;;6.45;;
67191;SDS011;54120;53.504;49.426;2022-08-14T03:21:24;14.43;;;6.40;;
67191;SDS011;54120;53.504;49.426;2022-08-14T03:23:52;15.60;;;5.93;;
67191;SDS011;54120;53.504;49.426;2022-08-14T03:26:42;13.45;;;5.03;;
67191;SDS011;54120;53.504;49.426;2022-08-14T03:29:11;8.40;;;4.95;;
67191;SDS011;54120;53.504;49.426;2022-08-14T03:31:40;12.60;;;5.63;;
67191;SDS011;54120;53.504;49.426;2022-08-14T03:34:08;11.48;;;6.18;;
67191;SDS011;54120;53.504;49.426;2022-08-14T03:36:35;19.80;;;6.22;;
67191;SDS011;54120;53.504;49.426;2022-08-14T03:39:03;18.52;;;6.40;;
67191;SDS011;54120;53.504;49.426;2022-08-14T03:41:31;21.35;;;10.15;;
67191;SDS011;54120;53.504;49.426;2022-08-14T03:43:59;35.65;;;13.65;;
67191;SDS011;54120;53.504;49.426;2022-08-14T03:46:30;38.85;;;16.00;;
67191;SDS011;54120;53.504;49.426;2022-08-14T03:48:58;33.85;;;16.67;;
67191;SDS011;54120;53.504;49.426;2022-08-14T03:51:27;29.20;;;15.10;;
67191;SDS011;54120;53.504;49.426;2022-08-14T03:53:54;33.45;;;14.50;;
67191;SDS011;54120;53.504;49.426;2022-08-14T03:56:23;28.95;;;12.48;;
67191;SDS011;54120;53.504;49.426;2022-08-14T03:58:51;20.88;;;9.85;;
67191;SDS011;54120;53.504;49.426;2022-08-14T04:01:22;21.48;;;9.73;;
67191;SDS011;54120;53.504;49.426;2022-08-14T04:03:50;18.42;;;9.32;;
67191;SDS011;54120;53.504;49.426;2022-08-14T04:06:19;20.48;;;11.70;;
67191;SDS011;54120;53.504;49.426;2022-08-14T04:08:46;26.85;;;10.38;;
67191;SDS011;54120;53.504;49.426;2022-08-14T04:11:14;24.00;;;12.60;;
67191;SDS011;54120;53.504;49.426;2022-08-14T04:13:41;48.22;;;25.65;;
67191;SDS011;54120;53.504;49.426;2022-08-14T04:16:10;46.13;;;23.15;;
67191;SDS011;54120;53.504;49.426;2022-08-14T04:18:39;45.15;;;22.42;;
67191;SDS011;54120;53.504;49.426;2022-08-14T04:21:08;49.60;;;25.92;;
67191;SDS011;54120;53.504;49.426;2022-08-14T04:23:35;41.63;;;20.50;;
67191;SDS011;54120;53.504;49.426;2022-08-14T04:26:05;39.42;;;19.98;;
67191;SDS011;54120;53.504;49.426;2022-08-14T04:28:34;34.30;;;16.13;;
67191;SDS011;54120;53.504;49.426;2022-08-14T04:31:02;31.40;;;12.68;;
67191;SDS011;54120;53.504;49.426;2022-08-14T04:33:29;25.00;;;11.18;;
67191;SDS011;54120;53.504;49.426;2022-08-14T04:35:56;15.30;;;9.10;;
67191;SDS011;54120;53.504;49.426;2022-08-14T04:38:23;24.08;;;7.82;;
67191;SDS011;54120;53.504;49.426;2022-08-14T04:41:08;16.20;;;7.47;;
67191;SDS011;54120;53.504;49.426;2022-08-14T04:43:53;23.25;;;9.70;;
67191;SDS011;54120;53.504;49.426;2022-08-14T04:46:20;23.15;;;10.65;;
67191;SDS011;54120;53.504;49.426;2022-08-14T04:48:47;24.15;;;10.50;;
67191;SDS011;54120;53.504;49.426;2022-08-14T04:51:16;18.52;;;7.28;;
67191;SDS011;54120;53.504;49.426;2022-08-14T04:53:45;15.52;;;7.22;;
67191;SDS011;54120;53.504;49.426;2022-08-14T04:56:17;16.23;;;7.00;;
67191;SDS011;54120;53.504;49.426;2022-08-14T04:58:47;11.48;;;6.35;;
67191;SDS011;54120;53.504;49.426;2022-08-14T05:01:22;13.82;;;6.75;;
67191;SDS011;54120;53.504;49.426;2022-08-14T05:03:49;13.88;;;6.22;;
67191;SDS011;54120;53.504;49.426;2022-08-14T05:06:16;12.48;;;7.25;;
67191;SDS011;54120;53.504;49.426;2022-08-14T05:08:43;11.10;;;5.03;;
67191;SDS011;54120;53.504;49.426;2022-08-14T05:11:09;8.40;;;4.10;;
67191;SDS011;54120;53.504;49.426;2022-08-14T05:13:36;9.48;;;4.10;;
67191;SDS011;54120;53.504;49.426;2022-08-14T05:16:03;8.13;;;3.42;;
67191;SDS011;54120;53.504;49.426;2022-08-14T05:18:33;7.82;;;3.03;;
67191;SDS011;54120;53.504;49.426;2022-08-14T05:21:03;7.82;;;2.65;;
67191;SDS011;54120;53.504;49.426;2022-08-14T05:23:31;8.10;;;3.20;;
67191;SDS011;54120;53.504;49.426;2022-08-14T05:25:59;7.20;;;2.72;;
67191;SDS011;54120;53.504;49.426;2022-08-14T05:28:28;10.30;;;2.92;;
67191;SDS011;54120;53.504;49.426;2022-08-14T05:30:57;9.60;;;2.53;;
67191;SDS011;54120;53.504;49.426;2022-08-14T05:33:26;10.43;;;2.85;;
67191;SDS011;54120;53.504;49.426;2022-08-14T05:35:55;7.28;;;2.85;;
67191;SDS011;54120;53.504;49.426;2022-08-14T05:38:30;7.15;;;2.72;;
67191;SDS011;54120;53.504;49.426;2022-08-14T05:40:59;2.78;;;2.38;;
67191;SDS011;54120;53.504;49.426;2022-08-14T05:43:29;4.35;;;2.70;;
67191;SDS011;54120;53.504;49.426;2022-08-14T05:45:58;6.63;;;2.33;;
67191;SDS011;54120;53.504;49.426;2022-08-14T05:48:26;5.50;;;2.17;;
67191;SDS011;54120;53.504;49.426;2022-08-14T05:50:53;5.20;;;2.35;;
67191;SDS011;54120;53.504;49.426;2022-08-14T05:53:20;8.52;;;2.50;;
67191;SDS011;54120;53.504;49.426;2022-08-14T05:55:47;6.13;;;2.70;;
67191;SDS011;54120;53.504;49.426;2022-08-14T05:58:14;6.72;;;2.33;;
67191;SDS011;54120;53.504;49.426;2022-08-14T06:00:41;6.05;;;2.83;;
67191;SDS011;54120;53.504;49.426;2022-08-14T06:03:10;7.65;;;2.63;;
67191;SDS011;54120;53.504;49.426;2022-08-14T06:05:39;8.23;;;3.00;;
67191;SDS011;54120;53.504;49.426;2022-08-14T06:08:19;6.28;;;2.97;;
67191;SDS011;54120;53.504;49.426;2022-08-14T06:10:48;13.98;;;4.75;;
67191;SDS011;54120;53.504;49.426;2022-08-14T06:13:19;10.15;;;4.40;;
67191;SDS011;54120;53.504;49.426;2022-08-14T06:15:46;5.07;;;2.90;;
67191;SDS011;54120;53.504;49.426;2022-08-14T06:18:16;6.82;;;3.22;;
67191;SDS011;54120;53.504;49.426;2022-08-14T06:20:42;7.70;;;2.72;;
67191;SDS011;54120;53.504;49.426;2022-08-14T06:23:09;7.45;;;2.85;;
67191;SDS011;54120;53.504;49.426;2022-08-14T06:25:35;6.55;;;2.55;;
67191;SDS011;54120;53.504;49.426;2022-08-14T06:28:02;6.60;;;3.13;;
67191;SDS011;54120;53.504;49.426;2022-08-14T06:30:30;6.10;;;3.22;;
67191;SDS011;54120;53.504;49.426;2022-08-14T06:32:58;5.10;;;2.35;;
67191;SDS011;54120;53.504;49.426;2022-08-14T06:35:25;5.72;;;2.40;;
67191;SDS011;54120;53.504;49.426;2022-08-14T06:37:53;3.92;;;2.42;;
67191;SDS011;54120;53.504;49.426;2022-08-14T06:40:25;7.50;;;2.35;;
67191;SDS011;54120;53.504;49.426;2022-08-14T06:42:57;10.60;;;2.53;;
67191;SDS011;54120;53.504;49.426;2022-08-14T06:45:24;3.75;;;2.40;;
67191;SDS011;54120;53.504;49.426;2022-08-14T06:47:51;7.35;;;2.80;;
67191;SDS011;54120;53.504;49.426;2022-08-14T06:50:18;12.43;;;3.38;;
67191;SDS011;54120;53.504;49.426;2022-08-14T06:52:46;12.07;;;3.20;;
67191;SDS011;54120;53.504;49.426;2022-08-14T06:55:13;7.70;;;3.17;;
67191;SDS011;54120;53.504;49.426;2022-08-14T06:57:43;9.25;;;4.35;;
67191;SDS011;54120;53.504;49.426;2022-08-14T07:00:16;6.65;;;3.58;;
67191;SDS011;54120;53.504;49.426;2022-08-14T07:02:44;12.02;;;3.33;;
67191;SDS011;54120;53.504;49.426;2022-08-14T07:05:29;7.88;;;2.53;;
67191;SDS011;54120;53.504;49.426;2022-08-14T07:10:53;10.15;;;2.00;;
67191;SDS011;54120;53.504;49.426;2022-08-14T07:13:22;6.50;;;1.90;;
67191;SDS011;54120;53.504;49.426;2022-08-14T07:15:51;8.23;;;2.30;;
67191;SDS011;54120;53.504;49.426;2022-08-14T07:18:20;7.88;;;1.92;;
67191;SDS011;54120;53.504;49.426;2022-08-14T07:20:47;4.55;;;1.70;;
67191;SDS011;54120;53.504;49.426;2022-08-14T07:23:14;6.65;;;2.22;;
67191;SDS011;54120;53.504;49.426;2022-08-14T07:25:41;6.40;;;1.75;;
67191;SDS011;54120;53.504;49.426;2022-08-14T07:30:35;4.72;;;2.00;;
67191;SDS011;54120;53.504;49.426;2022-08-14T07:33:01;5.68;;;1.80;;
67191;SDS011;54120;53.504;49.426;2022-08-14T07:35:29;15.52;;;2.13;;
67191;SDS011;54120;53.504;49.426;2022-08-14T07:37:55;4.03;;;1.90;;
67191;SDS011;54120;53.504;49.426;2022-08-14T07:40:21;8.27;;;1.70;;
67191;SDS011;54120;53.504;49.426;2022-08-14T07:42:47;10.25;;;2.10;;
67191;SDS011;54120;53.504;49.426;2022-08-14T07:45:13;3.95;;;1.83;;
67191;SDS011;54120;53.504;49.426;2022-08-14T07:47:43;7.65;;;2.00;;
67191;SDS011;54120;53.504;49.426;2022-08-14T07:50:13;3.85;;;2.45;;
67191;SDS011;54120;53.504;49.426;2022-08-14T07:52:41;5.07;;;2.03;;
67191;SDS011;54120;53.504;49.426;2022-08-14T07:55:09;10.15;;;2.50;;
67191;SDS011;54120;53.504;49.426;2022-08-14T07:57:40;2.15;;;1.85;;
67191;SDS011;54120;53.504;49.426;2022-08-14T08:00:09;5.30;;;1.90;;
67191;SDS011;54120;53.504;49.426;2022-08-14T08:02:47;2.20;;;2.03;;
67191;SDS011;54120;53.504;49.426;2022-08-14T08:05:16;2.90;;;2.30;;
67191;SDS011;54120;53.504;49.426;2022-08-14T08:07:43;2.45;;;1.73;;
67191;SDS011;54120;53.504;49.426;2022-08-14T08:10:15;6.18;;;2.28;;
67191;SDS011;54120;53.504;49.426;2022-08-14T08:13:06;6.03;;;1.80;;
67191;SDS011;54120;53.504;49.426;2022-08-14T08:15:41;2.65;;;1.50;;
67191;SDS011;54120;53.504;49.426;2022-08-14T08:18:10;5.80;;;1.52;;
67191;SDS011;54120;53.504;49.426;2022-08-14T08:20:45;1.92;;;1.70;;
67191;SDS011;54120;53.504;49.426;2022-08-14T08:23:14;3.15;;;1.77;;
67191;SDS011;54120;53.504;49.426;2022-08-14T08:25:43;5.75;;;1.48;;
67191;SDS011;54120;53.504;49.426;2022-08-14T08:28:22;3.45;;;1.60;;
67191;SDS011;54120;53.504;49.426;2022-08-14T08:30:54;4.72;;;1.60;;
67191;SDS011;54120;53.504;49.426;2022-08-14T08:33:29;3.28;;;1.52;;
67191;SDS011;54120;53.504;49.426;2022-08-14T08:36:00;3.90;;;1.80;;
67191;SDS011;54120;53.504;49.426;2022-08-14T08:38:30;6.00;;;1.92;;
67191;SDS011;54120;53.504;49.426;2022-08-14T08:40:58;3.25;;;1.88;;
67191;SDS011;54120;53.504;49.426;2022-08-14T08:43:26;6.32;;;2.13;;
67191;SDS011;54120;53.504;49.426;2022-08-14T08:46:02;4.05;;;1.70;;
67191;SDS011;54120;53.504;49.426;2022-08-14T08:48:53;2.03;;;1.80;;
67191;SDS011;54120;53.504;49.426;2022-08-14T08:51:26;4.05;;;1.70;;
67191;SDS011;54120;53.504;49.426;2022-08-14T08:54:11;3.78;;;1.73;;
67191;SDS011;54120;53.504;49.426;2022-08-14T08:56:46;11.52;;;2.45;;
67191;SDS011;54120;53.504;49.426;2022-08-14T08:59:17;7.93;;;2.10;;
67191;SDS011;54120;53.504;49.426;2022-08-14T09:01:49;3.67;;;1.77;;
67191;SDS011;54120;53.504;49.426;2022-08-14T09:04:28;1.73;;;1.63;;
67191;SDS011;54120;53.504;49.426;2022-08-14T09:06:58;2.43;;;1.73;;
67191;SDS011;54120;53.504;49.426;2022-08-14T09:09:26;4.68;;;1.80;;
67191;SDS011;54120;53.504;49.426;2022-08-14T09:11:55;5.85;;;1.52;;
67191;SDS011;54120;53.504;49.426;2022-08-14T09:14:23;1.70;;;1.50;;
67191;SDS011;54120;53.504;49.426;2022-08-14T09:16:55;4.40;;;1.50;;
67191;SDS011;54120;53.504;49.426;2022-08-14T09:19:24;3.63;;;1.48;;
67191;SDS011;54120;53.504;49.426;2022-08-14T09:21:51;1.63;;;1.52;;
67191;SDS011;54120;53.504;49.426;2022-08-14T09:24:20;2.75;;;1.52;;
67191;SDS011;54120;53.504;49.426;2022-08-14T09:26:46;2.95;;;1.80;;
67191;SDS011;54120;53.504;49.426;2022-08-14T09:29:13;4.05;;;1.90;;
67191;SDS011;54120;53.504;49.426;2022-08-14T09:31:42;3.72;;;1.40;;
67191;SDS011;54120;53.504;49.426;2022-08-14T09:34:17;3.72;;;1.60;;
67191;SDS011;54120;53.504;49.426;2022-08-14T09:42:29;4.10;;;1.75;;
67191;SDS011;54120;53.504;49.426;2022-08-14T09:47:53;1.65;;;1.25;;
67191;SDS011;54120;53.504;49.426;2022-08-14T09:50:24;3.40;;;1.30;;
67191;SDS011;54120;53.504;49.426;2022-08-14T09:53:03;5.13;;;1.50;;
67191;SDS011;54120;53.504;49.426;2022-08-14T09:55:32;1.80;;;1.60;;
67191;SDS011;54120;53.504;49.426;2022-08-14T10:00:41;2.33;;;1.20;;
67191;SDS011;54120;53.504;49.426;2022-08-14T10:03:07;1.95;;;1.50;;
67191;SDS011;54120;53.504;49.426;2022-08-14T10:05:34;7.00;;;1.85;;
67191;SDS011;54120;53.504;49.426;2022-08-14T10:08:01;7.43;;;1.63;;
67191;SDS011;54120;53.504;49.426;2022-08-14T10:10:36;4.00;;;1.63;;
67191;SDS011;54120;53.504;49.426;2022-08-14T10:13:04;6.35;;;1.58;;
67191;SDS011;54120;53.504;49.426;2022-08-14T10:15:43;5.47;;;1.40;;
67191;SDS011;54120;53.504;49.426;2022-08-14T10:18:14;5.10;;;1.60;;
67191;SDS011;54120;53.504;49.426;2022-08-14T10:20:43;2.00;;;1.50;;
67191;SDS011;54120;53.504;49.426;2022-08-14T10:23:18;3.03;;;1.30;;
67191;SDS011;54120;53.504;49.426;2022-08-14T10:25:47;10.32;;;1.65;;
67191;SDS011;54120;53.504;49.426;2022-08-14T10:28:21;3.67;;;1.30;;
67191;SDS011;54120;53.504;49.426;2022-08-14T10:30:48;6.40;;;1.70;;
67191;SDS011;54120;53.504;49.426;2022-08-14T10:33:31;3.05;;;1.73;;
67191;SDS011;54120;53.504;49.426;2022-08-14T10:35:58;4.47;;;1.42;;
67191;SDS011;54120;53.504;49.426;2022-08-14T10:38:27;3.78;;;1.65;;
67191;SDS011;54120;53.504;49.426;2022-08-14T10:41:13;4.60;;;1.88;;
67191;SDS011;54120;53.504;49.426;2022-08-14T10:43:42;7.13;;;1.70;;
67191;SDS011;54120;53.504;49.426;2022-08-14T10:46:16;2.53;;;1.48;;
67191;SDS011;54120;53.504;49.426;2022-08-14T10:48:54;5.90;;;1.38;;
67191;SDS011;54120;53.504;49.426;2022-08-14T10:51:27;2.00;;;1.48;;
67191;SDS011;54120;53.504;49.426;2022-08-14T10:53:55;5.72;;;1.70;;
67191;SDS011;54120;53.504;49.426;2022-08-14T10:56:29;1.08;;;1.00;;
67191;SDS011;54120;53.504;49.426;2022-08-14T11:01:29;1.77;;;1.50;;
67191;SDS011;54120;53.504;49.426;2022-08-14T11:03:56;4.25;;;1.98;;
67191;SDS011;54120;53.504;49.426;2022-08-14T11:06:22;3.30;;;1.40;;
67191;SDS011;54120;53.504;49.426;2022-08-14T11:08:48;1.65;;;1.40;;
67191;SDS011;54120;53.504;49.426;2022-08-14T11:11:16;5.07;;;1.30;;
67191;SDS011;54120;53.504;49.426;2022-08-14T11:13:44;6.03;;;1.30;;
67191;SDS011;54120;53.504;49.426;2022-08-14T11:16:12;6.53;;;1.38;;
67191;SDS011;54120;53.504;49.426;2022-08-14T11:18:43;2.25;;;1.20;;
67191;SDS011;54120;53.504;49.426;2022-08-14T11:21:13;2.03;;;1.40;;
67191;SDS011;54120;53.504;49.426;2022-08-14T11:23:43;3.08;;;1.73;;
67191;SDS011;54120;53.504;49.426;2022-08-14T11:26:11;1.90;;;1.70;;
67191;SDS011;54120;53.504;49.426;2022-08-14T11:28:41;1.75;;;1.40;;
67191;SDS011;54120;53.504;49.426;2022-08-14T11:31:10;6.05;;;2.30;;
67191;SDS011;54120;53.504;49.426;2022-08-14T11:33:40;10.52;;;2.95;;
67191;SDS011;54120;53.504;49.426;2022-08-14T11:36:08;2.80;;;1.40;;
67191;SDS011;54120;53.504;49.426;2022-08-14T11:38:38;5.90;;;1.80;;
67191;SDS011;54120;53.504;49.426;2022-08-14T11:41:06;4.50;;;1.80;;
67191;SDS011;54120;53.504;49.426;2022-08-14T11:43:40;2.28;;;1.30;;
67191;SDS011;54120;53.504;49.426;2022-08-14T11:46:07;4.63;;;1.67;;
67191;SDS011;54120;53.504;49.426;2022-08-14T11:48:47;3.58;;;1.45;;
67191;SDS011;54120;53.504;49.426;2022-08-14T11:51:17;2.53;;;1.40;;
67191;SDS011;54120;53.504;49.426;2022-08-14T11:54:10;5.60;;;1.38;;
67191;SDS011;54120;53.504;49.426;2022-08-14T11:56:39;4.38;;;1.60;;
67191;SDS011;54120;53.504;49.426;2022-08-14T11:59:16;2.90;;;1.67;;
67191;SDS011;54120;53.504;49.426;2022-08-14T12:01:47;3.80;;;1.80;;
67191;SDS011;54120;53.504;49.426;2022-08-14T12:04:14;1.52;;;1.42;;
67191;SDS011;54120;53.504;49.426;2022-08-14T12:06:43;4.15;;;1.27;;
67191;SDS011;54120;53.504;49.426;2022-08-14T12:09:13;2.63;;;1.20;;
67191;SDS011;54120;53.504;49.426;2022-08-14T12:11:52;10.77;;;1.65;;
67191;SDS011;54120;53.504;49.426;2022-08-14T12:14:18;4.78;;;1.15;;
67191;SDS011;54120;53.504;49.426;2022-08-14T12:16:56;3.42;;;1.67;;
67191;SDS011;54120;53.504;49.426;2022-08-14T12:19:29;3.25;;;1.88;;
67191;SDS011;54120;53.504;49.426;2022-08-14T12:21:57;2.15;;;1.17;;
67191;SDS011;54120;53.504;49.426;2022-08-14T12:24:26;2.95;;;1.40;;
67191;SDS011;54120;53.504;49.426;2022-08-14T12:26:54;4.13;;;1.58;;
67191;SDS011;54120;53.504;49.426;2022-08-14T12:29:21;5.60;;;1.90;;
67191;SDS011;54120;53.504;49.426;2022-08-14T12:31:56;9.20;;;2.10;;
67191;SDS011;54120;53.504;49.426;2022-08-14T12:34:29;7.20;;;1.85;;
67191;SDS011;54120;53.504;49.426;2022-08-14T12:37:00;5.93;;;1.98;;
67191;SDS011;54120;53.504;49.426;2022-08-14T12:39:35;3.17;;;1.65;;
67191;SDS011;54120;53.504;49.426;2022-08-14T12:42:02;5.22;;;1.50;;
67191;SDS011;54120;53.504;49.426;2022-08-14T12:44:35;5.53;;;1.38;;
67191;SDS011;54120;53.504;49.426;2022-08-14T12:47:04;5.47;;;1.65;;
67191;SDS011;54120;53.504;49.426;2022-08-14T12:55:15;5.55;;;1.40;;
67191;SDS011;54120;53.504;49.426;2022-08-14T12:57:43;2.08;;;1.20;;
67191;SDS011;54120;53.504;49.426;2022-08-14T13:00:12;4.07;;;1.30;;
67191;SDS011;54120;53.504;49.426;2022-08-14T13:02:42;3.08;;;1.20;;
67191;SDS011;54120;53.504;49.426;2022-08-14T13:05:11;1.70;;;1.20;;
67191;SDS011;54120;53.504;49.426;2022-08-14T13:07:38;2.97;;;1.33;;
67191;SDS011;54120;53.504;49.426;2022-08-14T13:10:10;1.30;;;1.20;;
67191;SDS011;54120;53.504;49.426;2022-08-14T13:15:08;6.25;;;1.60;;
67191;SDS011;54120;53.504;49.426;2022-08-14T13:17:49;6.10;;;1.50;;
67191;SDS011;54120;53.504;49.426;2022-08-14T13:20:20;3.83;;;2.00;;
67191;SDS011;54120;53.504;49.426;2022-08-14T13:22:49;5.90;;;1.40;;
67191;SDS011;54120;53.504;49.426;2022-08-14T13:25:17;8.88;;;1.42;;
67191;SDS011;54120;53.504;49.426;2022-08-14T13:27:46;8.00;;;1.92;;
67191;SDS011;54120;53.504;49.426;2022-08-14T13:30:15;5.30;;;2.38;;
67191;SDS011;54120;53.504;49.426;2022-08-14T13:32:45;4.65;;;1.50;;
67191;SDS011;54120;53.504;49.426;2022-08-14T13:35:12;1.77;;;1.30;;
67191;SDS011;54120;53.504;49.426;2022-08-14T13:37:44;2.55;;;1.20;;
67191;SDS011;54120;53.504;49.426;2022-08-14T13:40:15;3.17;;;1.38;;
67191;SDS011;54120;53.504;49.426;2022-08-14T13:42:43;3.72;;;1.50;;
67191;SDS011;54120;53.504;49.426;2022-08-14T13:45:10;3.13;;;1.63;;
67191;SDS011;54120;53.504;49.426;2022-08-14T13:47:38;3.78;;;1.38;;
67191;SDS011;54120;53.504;49.426;2022-08-14T13:50:05;2.20;;;2.00;;
67191;SDS011;54120;53.504;49.426;2022-08-14T13:52:39;4.82;;;1.58;;
67191;SDS011;54120;53.504;49.426;2022-08-14T13:55:08;2.90;;;1.80;;
67191;SDS011;54120;53.504;49.426;2022-08-14T13:57:39;5.00;;;1.63;;
67191;SDS011;54120;53.504;49.426;2022-08-14T14:00:09;2.20;;;1.48;;
67191;SDS011;54120;53.504;49.426;2022-08-14T14:02:39;2.95;;;1.67;;
67191;SDS011;54120;53.504;49.426;2022-08-14T14:05:09;2.75;;;1.67;;
67191;SDS011;54120;53.504;49.426;2022-08-14T14:07:40;3.13;;;1.40;;
67191;SDS011;54120;53.504;49.426;2022-08-14T14:10:11;4.28;;;1.67;;
67191;SDS011;54120;53.504;49.426;2022-08-14T14:12:38;2.58;;;1.48;;
67191;SDS011;54120;53.504;49.426;2022-08-14T14:15:06;2.55;;;1.90;;
67191;SDS011;54120;53.504;49.426;2022-08-14T14:17:34;2.95;;;1.52;;
67191;SDS011;54120;53.504;49.426;2022-08-14T14:20:02;3.95;;;1.83;;
67191;SDS011;54120;53.504;49.426;2022-08-14T14:22:30;3.03;;;1.80;;
67191;SDS011;54120;53.504;49.426;2022-08-14T14:24:57;5.15;;;1.83;;
67191;SDS011;54120;53.504;49.426;2022-08-14T14:27:26;6.45;;;1.98;;
67191;SDS011;54120;53.504;49.426;2022-08-14T14:29:55;5.60;;;2.00;;
67191;SDS011;54120;53.504;49.426;2022-08-14T14:32:25;1.67;;;1.50;;
67191;SDS011;54120;53.504;49.426;2022-08-14T14:34:53;8.70;;;1.83;;
67191;SDS011;54120;53.504;49.426;2022-08-14T14:37:23;6.25;;;1.70;;
67191;SDS011;54120;53.504;49.426;2022-08-14T14:39:50;7.40;;;2.20;;
67191;SDS011;54120;53.504;49.426;2022-08-14T14:42:17;10.32;;;3.05;;
67191;SDS011;54120;53.504;49.426;2022-08-14T14:44:44;8.05;;;1.73;;
67191;SDS011;54120;53.504;49.426;2022-08-14T14:47:17;5.03;;;1.77;;
67191;SDS011;54120;53.504;49.426;2022-08-14T14:49:47;3.45;;;1.70;;
67191;SDS011;54120;53.504;49.426;2022-08-14T14:52:14;2.35;;;1.52;;
67191;SDS011;54120;53.504;49.426;2022-08-14T14:54:45;5.03;;;1.90;;
67191;SDS011;54120;53.504;49.426;2022-08-14T14:57:13;3.00;;;1.48;;
67191;SDS011;54120;53.504;49.426;2022-08-14T14:59:41;6.38;;;2.10;;
67191;SDS011;54120;53.504;49.426;2022-08-14T15:02:08;12.30;;;2.17;;
67191;SDS011;54120;53.504;49.426;2022-08-14T15:04:37;6.00;;;2.40;;
67191;SDS011;54120;53.504;49.426;2022-08-14T15:07:04;7.70;;;3.55;;
67191;SDS011;54120;53.504;49.426;2022-08-14T15:09:32;6.35;;;2.47;;